createdAt,value
2017-08-24T00:02:15.027Z,69.75
2017-08-24T00:04:42.642Z,69.59
2017-08-24T00:07:10.231Z,69.89
2017-08-24T00:09:37.871Z,69.85
2017-08-24T00:12:05.470Z,70.44
2017-08-24T00:14:33.107Z,70.99
2017-08-24T00:17:00.691Z,71.36
2017-08-24T00:19:28.310Z,71.37
2017-08-24T00:21:55.918Z,71.81
2017-08-24T00:24:23.553Z,72.67
2017-08-24T00:26:51.186Z,73.45
2017-08-24T00:29:18.783Z,73.55
2017-08-24T00:31:46.409Z,74.04
2017-08-24T00:34:14.039Z,74.38
2017-08-24T00:36:41.664Z,74.54
2017-08-24T00:39:09.313Z,74.84
2017-08-24T00:41:36.911Z,75.17
2017-08-24T00:44:04.522Z,75.28
2017-08-24T00:46:32.168Z,75.28
2017-08-24T00:48:59.759Z,75.46
2017-08-24T00:51:27.459Z,75.76
2017-08-24T00:53:55.058Z,76.15
2017-08-24T00:56:22.693Z,76.49
2017-08-24T00:58:50.315Z,76.56
2017-08-24T01:01:17.951Z,76.59
2017-08-24T01:03:45.604Z,76.92
2017-08-24T01:06:13.218Z,77.43
2017-08-24T01:08:40.819Z,77.25
2017-08-24T01:11:08.463Z,76.68
2017-08-24T01:13:36.063Z,77.09
2017-08-24T01:16:03.663Z,76.75
2017-08-24T01:18:31.306Z,76.27
2017-08-24T01:20:58.886Z,74.45
2017-08-24T01:23:26.498Z,73.54
2017-08-24T01:25:54.090Z,73.02
2017-08-24T01:28:21.700Z,72.20
2017-08-24T01:30:49.302Z,71.68
2017-08-24T01:33:16.922Z,71.80
2017-08-24T01:35:44.527Z,72.04
2017-08-24T01:38:12.222Z,71.91
2017-08-24T01:40:39.810Z,71.61
2017-08-24T01:43:07.444Z,71.10
2017-08-24T01:45:35.039Z,70.92
2017-08-24T01:48:02.654Z,70.45
2017-08-24T01:50:30.265Z,70.54
2017-08-24T01:52:57.890Z,70.67
2017-08-24T01:55:25.481Z,70.79
2017-08-24T01:57:53.106Z,70.74
2017-08-24T02:00:20.795Z,70.78
2017-08-24T02:02:48.437Z,70.34
2017-08-24T02:05:16.059Z,70.07
2017-08-24T02:07:43.659Z,70.00
2017-08-24T02:10:11.282Z,69.14
2017-08-24T02:12:38.946Z,69.32
2017-08-24T02:15:06.584Z,69.20
2017-08-24T02:17:34.171Z,68.72
2017-08-24T02:20:01.785Z,69.09
2017-08-24T02:22:29.389Z,69.19
2017-08-24T02:24:57.011Z,69.34
2017-08-24T02:27:24.653Z,69.05
2017-08-24T02:29:52.259Z,69.25
2017-08-24T02:32:19.866Z,69.37
2017-08-24T02:34:47.494Z,69.52
2017-08-24T02:37:15.083Z,69.64
2017-08-24T02:39:42.750Z,69.63
2017-08-24T02:42:10.348Z,69.71
2017-08-24T02:44:37.982Z,69.95
2017-08-24T02:47:05.574Z,69.80
2017-08-24T02:49:33.202Z,69.83
2017-08-24T02:52:00.801Z,70.35
2017-08-24T02:54:28.526Z,70.58
2017-08-24T02:56:56.125Z,70.81
2017-08-24T02:59:23.750Z,70.78
2017-08-24T03:01:51.375Z,70.95
2017-08-24T03:04:18.970Z,71.11
2017-08-24T03:06:46.642Z,71.25
2017-08-24T03:09:14.262Z,71.63
2017-08-24T03:11:41.851Z,72.13
2017-08-24T03:14:09.443Z,72.25
2017-08-24T03:16:37.070Z,72.15
2017-08-24T03:19:04.666Z,72.09
2017-08-24T03:21:32.279Z,72.11
2017-08-24T03:23:59.896Z,72.32
2017-08-24T03:26:27.510Z,72.35
2017-08-24T03:28:55.127Z,72.52
2017-08-24T03:31:22.750Z,72.27
2017-08-24T03:33:50.346Z,72.61
2017-08-24T03:36:17.984Z,72.73
2017-08-24T03:38:45.579Z,72.91
2017-08-24T03:41:13.283Z,72.93
2017-08-24T03:43:40.869Z,72.77
2017-08-24T03:46:08.486Z,72.94
2017-08-24T03:48:36.082Z,72.78
2017-08-24T03:51:03.704Z,73.00
2017-08-24T03:53:31.295Z,73.03
2017-08-24T03:55:58.926Z,72.85
2017-08-24T03:58:26.510Z,73.35
2017-08-24T04:00:54.181Z,73.57
2017-08-24T04:03:21.862Z,73.82
2017-08-24T04:05:49.493Z,73.73
2017-08-24T04:08:17.097Z,73.71
2017-08-24T04:10:44.715Z,74.15
2017-08-24T04:13:12.303Z,74.36
2017-08-24T04:15:39.949Z,74.67
2017-08-24T04:18:07.546Z,74.55
2017-08-24T04:20:35.167Z,74.45
2017-08-24T04:23:02.764Z,74.73
2017-08-24T04:25:30.387Z,74.97
2017-08-24T04:27:57.983Z,75.07
2017-08-24T04:30:25.618Z,74.71
2017-08-24T04:32:53.238Z,74.65
2017-08-24T04:35:20.891Z,74.51
2017-08-24T04:37:48.499Z,74.81
2017-08-24T04:40:16.116Z,74.80
2017-08-24T04:42:43.917Z,74.87
2017-08-24T04:45:11.529Z,74.92
2017-08-24T04:47:39.258Z,74.94
2017-08-24T04:50:06.906Z,75.02
2017-08-24T04:52:34.498Z,75.27
2017-08-24T04:55:02.126Z,75.33
2017-08-24T04:57:29.722Z,75.39
2017-08-24T04:59:57.366Z,75.63
2017-08-24T05:02:24.970Z,75.36
2017-08-24T05:04:52.610Z,75.20
2017-08-24T05:07:20.263Z,74.98
2017-08-24T05:09:47.891Z,74.76
2017-08-24T05:12:15.490Z,74.71
2017-08-24T05:14:43.192Z,74.64
2017-08-24T05:17:10.795Z,74.73
2017-08-24T05:19:38.406Z,75.37
2017-08-24T05:22:06.042Z,75.38
2017-08-24T05:24:33.651Z,75.34
2017-08-24T05:27:01.288Z,75.33
2017-08-24T05:29:28.914Z,75.45
2017-08-24T05:31:56.546Z,75.94
2017-08-24T05:34:24.195Z,76.05
2017-08-24T05:36:51.771Z,75.90
2017-08-24T05:39:19.370Z,75.70
2017-08-24T05:41:47.041Z,75.78
2017-08-24T05:44:14.634Z,75.59
2017-08-24T05:46:42.286Z,75.61
2017-08-24T05:49:09.888Z,75.41
2017-08-24T05:51:37.511Z,75.58
2017-08-24T05:54:05.107Z,75.56
2017-08-24T05:56:32.740Z,75.54
2017-08-24T05:59:00.336Z,75.96
2017-08-24T06:01:27.998Z,75.92
2017-08-24T06:03:55.600Z,75.85
2017-08-24T06:06:23.218Z,76.19
2017-08-24T06:08:50.878Z,76.59
2017-08-24T06:11:18.517Z,76.62
2017-08-24T06:13:46.121Z,76.46
2017-08-24T06:16:14.452Z,76.53
2017-08-24T06:18:42.086Z,76.63
2017-08-24T06:21:09.738Z,76.79
2017-08-24T06:23:37.332Z,76.84
2017-08-24T06:26:05.490Z,76.71
2017-08-24T06:28:33.118Z,76.67
2017-08-24T06:31:01.202Z,76.51
2017-08-24T06:33:28.847Z,76.44
2017-08-24T06:35:56.450Z,76.26
2017-08-24T06:38:24.100Z,76.27
2017-08-24T06:40:51.702Z,75.87
2017-08-24T06:43:19.368Z,75.43
2017-08-24T06:45:46.970Z,75.58
2017-08-24T06:48:14.606Z,75.43
2017-08-24T06:50:42.211Z,74.86
2017-08-24T06:53:09.854Z,74.89
2017-08-24T06:55:37.502Z,75.16
2017-08-24T06:58:05.156Z,75.08
2017-08-24T07:00:32.793Z,74.67
2017-08-24T07:03:00.407Z,74.91
2017-08-24T07:05:28.042Z,74.90
2017-08-24T07:07:55.633Z,75.10
2017-08-24T07:10:23.291Z,74.86
2017-08-24T07:12:50.882Z,74.81
2017-08-24T07:15:18.503Z,74.75
2017-08-24T07:17:46.226Z,74.69
2017-08-24T07:20:13.963Z,74.61
2017-08-24T07:22:41.587Z,74.67
2017-08-24T07:25:09.207Z,74.26
2017-08-24T07:27:36.818Z,74.35
2017-08-24T07:30:04.422Z,74.76
2017-08-24T07:32:32.042Z,74.58
2017-08-24T07:34:59.641Z,74.59
2017-08-24T07:37:27.362Z,74.56
2017-08-24T07:39:54.994Z,74.12
2017-08-24T07:42:22.610Z,74.25
2017-08-24T07:44:50.210Z,74.10
2017-08-24T07:47:17.878Z,74.02
2017-08-24T07:49:45.487Z,74.01
2017-08-24T07:52:13.095Z,74.25
2017-08-24T07:54:40.724Z,74.34
2017-08-24T07:57:08.318Z,73.97
2017-08-24T07:59:35.955Z,73.89
2017-08-24T08:02:03.546Z,73.86
2017-08-24T08:04:31.171Z,73.62
2017-08-24T08:06:58.771Z,73.78
2017-08-24T08:09:26.394Z,73.12
2017-08-24T08:11:54.026Z,72.97
2017-08-24T08:14:21.687Z,72.91
2017-08-24T08:16:49.287Z,72.65
2017-08-24T08:19:16.914Z,72.17
2017-08-24T08:21:44.514Z,72.42
2017-08-24T08:24:12.170Z,72.91
2017-08-24T08:26:39.782Z,72.38
2017-08-24T08:29:07.390Z,71.94
2017-08-24T08:31:35.014Z,72.00
2017-08-24T08:34:02.606Z,71.94
2017-08-24T08:36:30.251Z,71.91
2017-08-24T08:38:57.864Z,71.48
2017-08-24T08:41:25.503Z,71.13
2017-08-24T08:43:53.127Z,70.83
2017-08-24T08:46:20.770Z,71.06
2017-08-24T08:48:48.419Z,70.92
2017-08-24T08:51:16.051Z,70.50
2017-08-24T08:53:43.656Z,70.53
2017-08-24T08:56:11.279Z,70.05
2017-08-24T08:58:38.871Z,70.16
2017-08-24T09:01:06.487Z,69.96
2017-08-24T09:03:34.103Z,69.43
2017-08-24T09:06:01.717Z,69.36
2017-08-24T09:08:29.339Z,69.12
2017-08-24T09:10:56.968Z,69.31
2017-08-24T09:13:24.563Z,68.97
2017-08-24T09:15:52.165Z,68.46
2017-08-24T09:18:19.782Z,68.27
2017-08-24T09:20:47.394Z,67.78
2017-08-24T09:23:15.019Z,67.61
2017-08-24T09:25:42.616Z,68.20
2017-08-24T09:28:10.237Z,68.07
2017-08-24T09:30:37.830Z,68.22
2017-08-24T09:33:05.463Z,68.16
2017-08-24T09:35:33.068Z,67.19
2017-08-24T09:38:00.689Z,67.20
2017-08-24T09:40:28.362Z,67.17
2017-08-24T09:42:55.979Z,67.78
2017-08-24T09:45:23.598Z,67.88
2017-08-24T09:47:51.214Z,67.49
2017-08-24T09:50:18.813Z,66.68
2017-08-24T09:52:46.448Z,66.34
2017-08-24T09:55:14.036Z,66.74
2017-08-24T09:57:41.669Z,66.57
2017-08-24T10:00:09.267Z,66.39
2017-08-24T10:02:36.888Z,66.06
2017-08-24T10:05:04.470Z,65.54
2017-08-24T10:07:32.095Z,65.87
2017-08-24T10:09:59.750Z,65.80
2017-08-24T10:12:27.388Z,65.62
2017-08-24T10:14:54.995Z,66.13
2017-08-24T10:17:22.582Z,65.61
2017-08-24T10:19:50.191Z,66.23
2017-08-24T10:22:17.811Z,65.95
2017-08-24T10:24:45.422Z,65.54
2017-08-24T10:27:13.028Z,65.60
2017-08-24T10:29:40.725Z,65.34
2017-08-24T10:32:08.270Z,64.96
2017-08-24T10:34:35.922Z,64.45
2017-08-24T10:37:03.518Z,64.40
2017-08-24T10:39:31.159Z,63.88
2017-08-24T10:41:58.766Z,63.34
2017-08-24T10:44:28.111Z,63.35
2017-08-24T10:46:55.711Z,62.17
2017-08-24T10:49:23.323Z,62.54
2017-08-24T10:51:50.933Z,63.02
2017-08-24T10:54:18.595Z,60.91
2017-08-24T10:56:46.183Z,60.50
2017-08-24T10:59:13.790Z,59.16
2017-08-24T11:01:41.419Z,59.88
2017-08-24T11:04:09.013Z,61.25
2017-08-24T11:06:36.668Z,61.21
2017-08-24T11:09:04.255Z,61.10
2017-08-24T11:11:31.892Z,60.56
2017-08-24T11:13:59.494Z,61.34
2017-08-24T11:16:27.122Z,60.20
2017-08-24T11:18:54.754Z,59.89
2017-08-24T11:21:22.384Z,60.28
2017-08-24T11:23:49.982Z,59.73
2017-08-24T11:26:17.643Z,58.84
2017-08-24T11:28:45.239Z,57.26
2017-08-24T11:31:12.875Z,57.58
2017-08-24T11:33:40.546Z,57.35
2017-08-24T11:36:08.166Z,57.50
2017-08-24T11:38:35.767Z,56.93
2017-08-24T11:41:03.407Z,56.59
2017-08-24T11:43:31.027Z,56.23
2017-08-24T11:45:58.642Z,56.13
2017-08-24T11:48:26.235Z,55.10
2017-08-24T11:50:53.822Z,56.15
2017-08-24T11:53:21.424Z,56.54
2017-08-24T11:55:49.078Z,55.86
2017-08-24T11:58:16.697Z,55.02
2017-08-24T12:00:44.351Z,53.23
2017-08-24T12:03:11.950Z,51.87
2017-08-24T12:05:39.679Z,51.14
2017-08-24T12:08:07.280Z,50.25
2017-08-24T12:10:34.930Z,50.38
2017-08-24T12:13:02.538Z,49.29
2017-08-24T12:15:30.127Z,49.74
2017-08-24T12:17:57.786Z,47.58
2017-08-24T12:20:25.387Z,47.48
2017-08-24T12:22:53.010Z,46.25
2017-08-24T12:25:20.611Z,47.27
2017-08-24T12:27:48.239Z,47.69
2017-08-24T12:30:15.838Z,48.63
2017-08-24T12:32:43.549Z,47.13
2017-08-24T12:35:11.146Z,46.13
2017-08-24T12:37:38.771Z,44.96
2017-08-24T12:40:06.362Z,44.60
2017-08-24T12:42:33.986Z,45.62
2017-08-24T12:45:01.585Z,46.77
2017-08-24T12:47:29.219Z,44.49
2017-08-24T12:49:56.823Z,45.33
2017-08-24T12:52:24.467Z,46.09
2017-08-24T12:54:52.094Z,44.32
2017-08-24T12:57:19.686Z,45.00
2017-08-24T12:59:47.315Z,46.10
2017-08-24T13:02:14.969Z,44.11
2017-08-24T13:04:42.599Z,43.53
2017-08-24T13:07:10.198Z,43.62
2017-08-24T13:09:37.818Z,42.78
2017-08-24T13:12:05.411Z,43.07
2017-08-24T13:14:33.060Z,41.64
2017-08-24T13:17:00.659Z,41.52
2017-08-24T13:19:28.289Z,42.03
2017-08-24T13:21:55.882Z,42.00
2017-08-24T13:24:23.563Z,41.25
2017-08-24T13:26:51.171Z,42.18
2017-08-24T13:29:18.806Z,40.83
2017-08-24T13:31:46.416Z,38.84
2017-08-24T13:34:14.011Z,40.69
2017-08-24T13:36:41.650Z,41.40
2017-08-24T13:39:09.251Z,41.03
2017-08-24T13:41:36.903Z,41.94
2017-08-24T13:44:04.506Z,40.38
2017-08-24T13:46:32.151Z,39.91
2017-08-24T13:48:59.752Z,39.85
2017-08-24T13:51:27.402Z,40.09
2017-08-24T13:53:55.011Z,40.35
2017-08-24T13:56:22.677Z,39.71
2017-08-24T13:58:50.278Z,38.53
2017-08-24T14:01:17.919Z,38.22
2017-08-24T14:03:45.530Z,38.44
2017-08-24T14:06:13.150Z,38.19
2017-08-24T14:08:40.746Z,38.46
2017-08-24T14:11:08.383Z,37.92
2017-08-24T14:13:35.997Z,39.10
2017-08-24T14:16:03.634Z,40.06
2017-08-24T14:18:31.236Z,38.85
2017-08-24T14:20:58.849Z,38.79
2017-08-24T14:23:26.522Z,38.18
2017-08-24T14:25:54.155Z,39.24
2017-08-24T14:28:21.746Z,37.88
2017-08-24T14:30:49.390Z,38.72
2017-08-24T14:33:16.978Z,40.06
2017-08-24T14:35:44.606Z,39.93
2017-08-24T14:38:12.230Z,40.14
2017-08-24T14:40:39.841Z,39.75
2017-08-24T14:43:07.474Z,40.33
2017-08-24T14:45:35.058Z,40.67
2017-08-24T14:48:02.684Z,42.10
2017-08-24T14:50:30.282Z,42.83
2017-08-24T14:52:57.904Z,43.11
2017-08-24T14:55:25.524Z,43.40
2017-08-24T14:57:53.204Z,43.16
2017-08-24T15:00:20.804Z,42.11
2017-08-24T15:02:48.447Z,40.78
2017-08-24T15:05:16.042Z,39.79
2017-08-24T15:07:43.664Z,40.73
2017-08-24T15:10:11.267Z,42.15
2017-08-24T15:12:39.010Z,42.43
2017-08-24T15:15:06.600Z,42.02
2017-08-24T15:17:34.215Z,41.47
2017-08-24T15:20:01.803Z,41.04
2017-08-24T15:22:29.445Z,40.70
2017-08-24T15:24:57.039Z,40.48
2017-08-24T15:27:24.686Z,39.52
2017-08-24T15:29:52.299Z,39.72
2017-08-24T15:32:19.935Z,40.08
2017-08-24T15:34:47.570Z,39.91
2017-08-24T15:37:15.167Z,40.01
2017-08-24T15:39:42.798Z,39.54
2017-08-24T15:42:10.430Z,39.78
2017-08-24T15:44:38.059Z,39.42
2017-08-24T15:47:05.662Z,39.62
2017-08-24T15:49:33.286Z,38.46
2017-08-24T15:52:00.894Z,39.11
2017-08-24T15:54:28.524Z,39.59
2017-08-24T15:56:56.119Z,40.94
2017-08-24T15:59:23.751Z,41.74
2017-08-24T16:01:51.362Z,40.64
2017-08-24T16:04:18.992Z,40.32
2017-08-24T16:06:46.598Z,40.85
2017-08-24T16:09:14.242Z,41.28
2017-08-24T16:11:41.847Z,40.99
2017-08-24T16:14:09.538Z,40.88
2017-08-24T16:16:37.139Z,41.12
2017-08-24T16:19:04.764Z,41.16
2017-08-24T16:21:32.358Z,41.14
2017-08-24T16:24:00.003Z,41.49
2017-08-24T16:26:27.615Z,41.77
2017-08-24T16:28:55.256Z,41.25
2017-08-24T16:31:22.854Z,40.88
2017-08-24T16:33:50.514Z,42.21
2017-08-24T16:36:18.114Z,41.74
2017-08-24T16:38:45.797Z,41.91
2017-08-24T16:41:13.394Z,41.53
2017-08-24T16:43:41.030Z,42.22
2017-08-24T16:46:08.623Z,42.63
2017-08-24T16:48:36.258Z,42.27
2017-08-24T16:51:03.878Z,42.57
2017-08-24T16:53:31.514Z,42.91
2017-08-24T16:55:59.149Z,43.06
2017-08-24T16:58:26.791Z,42.84
2017-08-24T17:00:54.391Z,43.36
2017-08-24T17:03:22.026Z,42.93
2017-08-24T17:05:49.629Z,42.86
2017-08-24T17:08:17.255Z,43.23
2017-08-24T17:10:44.888Z,44.00
2017-08-24T17:13:12.507Z,43.84
2017-08-24T17:15:40.134Z,44.46
2017-08-24T17:18:07.812Z,43.95
2017-08-24T17:20:35.419Z,43.90
2017-08-24T17:23:03.052Z,44.51
2017-08-24T17:25:30.658Z,44.25
2017-08-24T17:27:58.278Z,44.12
2017-08-24T17:30:25.872Z,44.21
2017-08-24T17:32:53.527Z,44.15
2017-08-24T17:35:21.114Z,44.45
2017-08-24T17:37:48.743Z,44.48
2017-08-24T17:40:16.343Z,44.08
2017-08-24T17:42:43.974Z,44.92
2017-08-24T17:45:11.654Z,45.06
2017-08-24T17:47:39.311Z,45.43
2017-08-24T17:50:06.953Z,45.29
2017-08-24T17:52:34.567Z,45.80
2017-08-24T17:55:02.387Z,46.14
2017-08-24T17:57:30.002Z,45.99
2017-08-24T17:59:57.693Z,46.29
2017-08-24T18:02:25.307Z,46.50
2017-08-24T18:04:52.922Z,46.58
2017-08-24T18:07:20.523Z,46.84
2017-08-24T18:09:48.186Z,47.12
2017-08-24T18:12:15.810Z,47.14
2017-08-24T18:14:43.426Z,48.15
2017-08-24T18:17:11.036Z,47.82
2017-08-24T18:19:38.696Z,48.29
2017-08-24T18:22:06.314Z,47.64
2017-08-24T18:24:33.951Z,47.82
2017-08-24T18:27:01.571Z,48.34
2017-08-24T18:29:29.221Z,48.42
2017-08-24T18:31:56.862Z,48.65
2017-08-24T18:34:24.508Z,48.95
2017-08-24T18:36:52.124Z,49.42
2017-08-24T18:39:19.767Z,49.07
2017-08-24T18:41:47.378Z,49.60
2017-08-24T18:44:15.083Z,49.02
2017-08-24T18:46:42.679Z,49.04
2017-08-24T18:49:10.302Z,49.12
2017-08-24T18:51:38.030Z,49.34
2017-08-24T18:54:05.684Z,49.13
2017-08-24T18:56:33.316Z,49.64
2017-08-24T18:59:00.955Z,50.31
2017-08-24T19:01:28.604Z,49.89
2017-08-24T19:03:56.278Z,50.03
2017-08-24T19:06:23.887Z,49.76
2017-08-24T19:08:51.552Z,49.82
2017-08-24T19:11:19.180Z,50.04
2017-08-24T19:13:46.911Z,50.44
2017-08-24T19:16:14.618Z,50.84
2017-08-24T19:18:42.207Z,50.35
2017-08-24T19:21:09.832Z,50.76
2017-08-24T19:23:37.487Z,51.00
2017-08-24T19:26:05.096Z,50.74
2017-08-24T19:28:32.698Z,50.48
2017-08-24T19:31:00.351Z,50.48
2017-08-24T19:33:27.946Z,51.10
2017-08-24T19:35:55.590Z,50.59
2017-08-24T19:38:23.158Z,50.78
2017-08-24T19:40:50.806Z,52.20
2017-08-24T19:43:18.450Z,52.44
2017-08-24T19:45:46.092Z,52.98
2017-08-24T19:48:13.690Z,52.72
2017-08-24T19:50:41.342Z,53.56
2017-08-24T19:53:08.950Z,53.74
2017-08-24T19:55:36.584Z,53.81
2017-08-24T19:58:04.183Z,53.94
2017-08-24T20:00:31.886Z,54.20
2017-08-24T20:02:59.506Z,54.25
2017-08-24T20:05:27.171Z,54.61
2017-08-24T20:07:54.776Z,55.11
2017-08-24T20:10:22.385Z,54.95
2017-08-24T20:12:50.032Z,55.15
2017-08-24T20:15:17.681Z,55.15
2017-08-24T20:17:45.309Z,55.60
2017-08-24T20:20:12.907Z,55.90
2017-08-24T20:22:40.627Z,56.23
2017-08-24T20:25:08.278Z,56.50
2017-08-24T20:27:35.958Z,56.58
2017-08-24T20:30:03.599Z,56.70
2017-08-24T20:32:31.201Z,57.07
2017-08-24T20:34:58.838Z,57.23
2017-08-24T20:37:26.434Z,57.32
2017-08-24T20:39:54.082Z,57.42
2017-08-24T20:42:21.702Z,57.21
2017-08-24T20:44:49.358Z,57.35
2017-08-24T20:47:16.954Z,57.65
2017-08-24T20:49:44.603Z,57.74
2017-08-24T20:52:12.203Z,58.13
2017-08-24T20:54:39.850Z,58.38
2017-08-24T20:57:07.531Z,58.15
2017-08-24T20:59:35.126Z,58.39
2017-08-24T21:02:02.760Z,58.53
2017-08-24T21:04:30.397Z,58.88
2017-08-24T21:06:58.002Z,60.51
2017-08-24T21:09:25.703Z,60.93
2017-08-24T21:11:53.301Z,60.84
2017-08-24T21:14:20.889Z,60.31
2017-08-24T21:16:48.514Z,60.57
2017-08-24T21:19:16.108Z,60.73
2017-08-24T21:21:43.835Z,61.19
2017-08-24T21:24:11.436Z,61.55
2017-08-24T21:26:39.059Z,61.58
2017-08-24T21:29:06.691Z,61.39
2017-08-24T21:31:34.294Z,61.13
2017-08-24T21:34:01.895Z,60.85
2017-08-24T21:36:29.670Z,60.67
2017-08-24T21:38:57.295Z,60.45
2017-08-24T21:41:25.107Z,60.73
2017-08-24T21:43:52.708Z,61.64
2017-08-24T21:46:20.408Z,61.95
2017-08-24T21:48:48.017Z,61.90
2017-08-24T21:51:15.635Z,62.21
2017-08-24T21:53:43.230Z,62.50
2017-08-24T21:56:10.857Z,63.00
2017-08-24T21:58:38.474Z,64.09
2017-08-24T22:01:06.188Z,64.73
2017-08-24T22:03:33.821Z,65.52
2017-08-24T22:06:01.555Z,66.14
2017-08-24T22:08:29.219Z,66.45
2017-08-24T22:10:56.903Z,66.54
2017-08-24T22:13:24.503Z,66.50
2017-08-24T22:15:52.120Z,66.06
2017-08-24T22:18:19.717Z,65.66
2017-08-24T22:20:47.355Z,65.42
2017-08-24T22:23:14.963Z,66.11
2017-08-24T22:25:42.591Z,66.64
2017-08-24T22:28:10.187Z,66.51
2017-08-24T22:30:37.823Z,66.44
2017-08-24T22:33:05.562Z,66.21
2017-08-24T22:35:33.171Z,66.01
2017-08-24T22:38:00.761Z,65.92
2017-08-24T22:40:28.394Z,66.34
2017-08-24T22:42:56.003Z,66.63
2017-08-24T22:45:23.631Z,66.82
2017-08-24T22:47:51.251Z,67.21
2017-08-24T22:50:18.875Z,67.32
2017-08-24T22:52:46.478Z,67.62
2017-08-24T22:55:19.615Z,68.15
2017-08-24T22:57:52.746Z,68.43
2017-08-24T23:00:26.031Z,68.00
2017-08-24T23:02:59.268Z,67.72
2017-08-24T23:05:26.899Z,67.44
2017-08-24T23:07:54.637Z,67.16
2017-08-24T23:10:22.259Z,66.66
2017-08-24T23:12:49.846Z,67.41
2017-08-24T23:15:17.500Z,67.25
2017-08-24T23:17:45.106Z,67.54
2017-08-24T23:20:12.699Z,68.07
2017-08-24T23:22:40.341Z,68.14
2017-08-24T23:25:08.003Z,67.98
2017-08-24T23:27:35.731Z,68.23
2017-08-24T23:30:03.330Z,68.45
2017-08-24T23:32:30.970Z,68.81
2017-08-24T23:34:58.734Z,69.08
2017-08-24T23:37:26.582Z,69.14
2017-08-24T23:39:54.186Z,69.42
2017-08-24T23:42:21.822Z,69.61
2017-08-24T23:44:49.426Z,69.74
2017-08-24T23:47:17.171Z,69.56
2017-08-24T23:49:44.774Z,69.59
2017-08-24T23:52:12.515Z,69.25
2017-08-24T23:54:40.283Z,68.46
2017-08-24T23:57:08.008Z,68.64
2017-08-24T23:59:35.625Z,69.50
